createdAt,value
2023-03-17T00:00:35.884Z,4.68
2023-03-17T00:05:42.018Z,4.39
2023-03-17T00:10:48.312Z,4.59
2023-03-17T00:15:54.458Z,4.73
2023-03-17T00:21:00.678Z,4.85
2023-03-17T00:26:06.776Z,4.73
2023-03-17T00:31:12.956Z,4.87
2023-03-17T00:36:19.003Z,4.72
2023-03-17T00:41:25.158Z,4.89
2023-03-17T00:46:31.350Z,5.01
2023-03-17T00:51:37.380Z,4.83
2023-03-17T00:56:43.464Z,5.04
2023-03-17T01:01:49.798Z,4.75
2023-03-17T01:06:55.843Z,5.03
2023-03-17T01:12:02.056Z,5.06
2023-03-17T01:17:08.164Z,5.07
2023-03-17T01:22:14.424Z,5.12
2023-03-17T01:27:20.502Z,4.63
2023-03-17T01:32:26.721Z,4.80
2023-03-17T01:37:32.841Z,4.90
2023-03-17T01:42:39.050Z,4.48
2023-03-17T01:47:45.129Z,4.96
2023-03-17T01:52:51.432Z,4.65
2023-03-17T01:57:57.629Z,4.57
2023-03-17T02:03:03.872Z,4.48
2023-03-17T02:08:10.021Z,4.55
2023-03-17T02:13:16.332Z,4.77
2023-03-17T02:18:22.385Z,4.58
2023-03-17T02:23:28.604Z,4.47
2023-03-17T02:28:34.742Z,4.38
2023-03-17T02:33:40.928Z,4.68
2023-03-17T02:38:47.008Z,4.54
2023-03-17T02:43:53.286Z,4.49
2023-03-17T02:49:00.232Z,4.77
2023-03-17T02:54:06.453Z,4.89
2023-03-17T02:59:12.507Z,4.85
2023-03-17T03:04:19.203Z,4.50
2023-03-17T03:09:25.281Z,4.48
2023-03-17T03:14:31.534Z,4.73
2023-03-17T03:19:37.653Z,4.52
2023-03-17T03:24:44.032Z,4.31
2023-03-17T03:29:50.103Z,4.84
2023-03-17T03:34:56.376Z,4.50
2023-03-17T03:40:02.528Z,3.96
2023-03-17T03:45:08.871Z,4.47
2023-03-17T03:50:14.984Z,4.79
2023-03-17T03:55:21.145Z,4.53
2023-03-17T04:00:27.196Z,4.38
2023-03-17T04:05:33.371Z,4.42
2023-03-17T04:10:39.422Z,4.41
2023-03-17T04:15:45.656Z,4.38
2023-03-17T04:20:51.673Z,4.59
2023-03-17T04:25:57.954Z,4.28
2023-03-17T04:31:04.011Z,4.38
2023-03-17T04:36:10.219Z,4.02
2023-03-17T04:41:16.293Z,4.56
2023-03-17T04:46:22.520Z,4.45
2023-03-17T04:51:28.609Z,4.25
2023-03-17T04:56:34.854Z,4.52
2023-03-17T05:01:41.049Z,4.19
2023-03-17T05:06:47.223Z,4.34
2023-03-17T05:11:53.304Z,4.34
2023-03-17T05:16:59.594Z,4.65
2023-03-17T05:22:05.747Z,4.77
2023-03-17T05:27:11.949Z,4.02
2023-03-17T05:32:18.103Z,4.27
2023-03-17T05:37:24.379Z,4.67
2023-03-17T05:42:30.522Z,4.71
2023-03-17T05:47:36.673Z,4.43
2023-03-17T05:52:42.740Z,4.11
2023-03-17T05:57:48.961Z,4.42
2023-03-17T06:02:55.148Z,4.10
2023-03-17T06:08:01.300Z,4.61
2023-03-17T06:13:07.479Z,4.78
2023-03-17T06:18:13.662Z,4.82
2023-03-17T06:23:21.077Z,4.67
2023-03-17T06:28:27.300Z,4.53
2023-03-17T06:33:33.435Z,4.49
2023-03-17T06:38:39.602Z,4.69
2023-03-17T06:43:45.666Z,4.70
2023-03-17T06:48:51.954Z,4.55
2023-03-17T06:53:58.093Z,4.64
2023-03-17T06:59:04.439Z,4.32
2023-03-17T07:04:10.608Z,4.79
2023-03-17T07:09:16.738Z,4.69
2023-03-17T07:14:22.832Z,4.69
2023-03-17T07:19:29.065Z,4.77
2023-03-17T07:24:35.134Z,4.23
2023-03-17T07:29:41.260Z,4.49
2023-03-17T07:34:47.489Z,4.42
2023-03-17T07:39:53.620Z,4.45
2023-03-17T07:44:59.713Z,4.05
2023-03-17T07:50:06.330Z,4.26
2023-03-17T07:55:12.398Z,3.94
2023-03-17T08:00:18.533Z,3.88
2023-03-17T08:05:24.603Z,4.37
2023-03-17T08:10:31.129Z,4.05
2023-03-17T08:15:36.438Z,3.96
2023-03-17T08:20:42.704Z,3.81
2023-03-17T08:25:48.773Z,3.85
2023-03-17T08:30:55.074Z,3.77
2023-03-17T08:36:01.153Z,3.58
2023-03-17T08:41:07.290Z,3.44
2023-03-17T08:46:13.405Z,3.57
2023-03-17T08:51:22.844Z,3.47
2023-03-17T08:56:25.493Z,3.44
2023-03-17T09:01:31.709Z,3.19
2023-03-17T09:06:38.088Z,3.25
2023-03-17T09:11:43.461Z,3.36
2023-03-17T09:16:49.557Z,3.26
2023-03-17T09:21:55.757Z,3.28
2023-03-17T09:27:01.859Z,3.27
2023-03-17T09:32:08.039Z,2.90
2023-03-17T09:37:14.141Z,3.06
2023-03-17T09:42:20.342Z,3.34
2023-03-17T09:47:26.589Z,3.31
2023-03-17T09:52:32.840Z,3.28
2023-03-17T09:57:38.991Z,3.29
2023-03-17T10:02:45.157Z,3.00
2023-03-17T10:07:51.225Z,3.76
2023-03-17T10:12:57.637Z,3.50
2023-03-17T10:18:03.720Z,3.12
2023-03-17T10:23:09.881Z,3.55
2023-03-17T10:28:15.957Z,3.13
2023-03-17T10:33:22.095Z,3.21
2023-03-17T10:38:28.164Z,3.30
2023-03-17T10:43:34.327Z,3.43
2023-03-17T10:48:40.560Z,3.99
2023-03-17T10:53:46.710Z,3.58
2023-03-17T10:58:52.859Z,3.19
2023-03-17T11:03:59.229Z,3.53
2023-03-17T11:09:05.617Z,3.51
2023-03-17T11:14:11.806Z,3.27
2023-03-17T11:19:17.882Z,3.44
2023-03-17T11:24:24.066Z,3.32
2023-03-17T11:29:30.236Z,3.70
2023-03-17T11:34:36.455Z,3.68
2023-03-17T11:39:42.588Z,3.64
2023-03-17T11:44:48.960Z,3.95
2023-03-17T11:49:55.134Z,4.06
2023-03-17T11:55:01.350Z,4.03
2023-03-17T12:00:07.466Z,3.88
2023-03-17T12:05:13.874Z,3.91
2023-03-17T12:10:19.945Z,3.91
2023-03-17T12:15:26.299Z,3.79
2023-03-17T12:20:32.672Z,4.45
2023-03-17T12:25:38.143Z,3.99
2023-03-17T12:30:44.309Z,4.04
2023-03-17T12:35:50.640Z,4.19
2023-03-17T12:40:56.681Z,4.26
2023-03-17T12:46:03.002Z,4.10
2023-03-17T12:51:08.970Z,4.32
2023-03-17T12:56:15.154Z,4.63
2023-03-17T13:01:21.264Z,4.46
2023-03-17T13:06:27.412Z,4.46
2023-03-17T13:11:33.572Z,4.78
2023-03-17T13:16:39.873Z,4.33
2023-03-17T13:21:46.012Z,4.39
2023-03-17T13:26:54.822Z,4.48
2023-03-17T13:31:57.825Z,4.36
2023-03-17T13:37:04.122Z,4.68
2023-03-17T13:42:17.777Z,4.67
2023-03-17T13:47:15.877Z,4.59
2023-03-17T13:52:22.079Z,4.59
2023-03-17T13:57:28.256Z,5.08
2023-03-17T14:02:34.322Z,4.87
2023-03-17T14:07:40.553Z,5.10
2023-03-17T14:12:46.704Z,5.09
2023-03-17T14:17:52.854Z,5.17
2023-03-17T14:22:59.011Z,4.82
2023-03-17T14:28:05.168Z,5.02
2023-03-17T14:33:11.372Z,5.26
2023-03-17T14:38:18.231Z,5.11
2023-03-17T14:43:24.283Z,5.05
2023-03-17T14:48:30.458Z,4.88
2023-03-17T14:53:36.591Z,5.61
2023-03-17T14:58:42.811Z,5.24
2023-03-17T15:03:48.985Z,5.30
2023-03-17T15:08:55.177Z,5.36
2023-03-17T15:14:01.255Z,5.75
2023-03-17T15:19:07.481Z,5.62
2023-03-17T15:24:14.791Z,5.85
2023-03-17T15:29:19.363Z,5.71
2023-03-17T15:34:25.509Z,5.63
2023-03-17T15:39:31.714Z,5.85
2023-03-17T15:44:37.859Z,5.79
2023-03-17T15:49:44.016Z,6.17
2023-03-17T15:54:50.155Z,6.21
2023-03-17T15:59:56.522Z,6.33
2023-03-17T16:05:02.596Z,6.37
2023-03-17T16:10:08.895Z,6.03
2023-03-17T16:15:22.503Z,6.19
2023-03-17T16:20:20.647Z,6.49
2023-03-17T16:25:26.790Z,6.21
2023-03-17T16:30:33.335Z,6.28
2023-03-17T16:35:38.623Z,6.32
2023-03-17T16:40:44.887Z,5.71
2023-03-17T16:45:51.080Z,6.20
2023-03-17T16:50:57.368Z,6.01
2023-03-17T16:56:03.426Z,6.57
2023-03-17T17:01:09.713Z,6.41
2023-03-17T17:06:15.805Z,6.47
2023-03-17T17:11:22.086Z,6.86
2023-03-17T17:16:28.205Z,6.39
2023-03-17T17:21:34.289Z,6.30
2023-03-17T17:26:51.423Z,6.37
2023-03-17T17:31:47.750Z,6.53
2023-03-17T17:36:53.798Z,5.53
2023-03-17T17:41:59.902Z,5.54
2023-03-17T17:47:05.987Z,6.20
2023-03-17T17:52:12.170Z,6.65
2023-03-17T17:57:18.239Z,6.68
2023-03-17T18:02:24.417Z,7.62
2023-03-17T18:07:30.599Z,7.19
2023-03-17T18:12:36.781Z,7.13
2023-03-17T18:17:43.000Z,7.27
2023-03-17T18:22:49.262Z,8.65
2023-03-17T18:27:55.456Z,7.00
2023-03-17T18:33:01.831Z,6.63
2023-03-17T18:38:08.079Z,6.02
2023-03-17T18:43:14.510Z,6.08
2023-03-17T18:48:20.621Z,6.16
2023-03-17T18:53:26.932Z,6.14
2023-03-17T18:58:33.052Z,6.08
2023-03-17T19:03:39.246Z,6.36
2023-03-17T19:08:45.323Z,7.55
2023-03-17T19:13:51.577Z,7.01
2023-03-17T19:18:57.654Z,7.70
2023-03-17T19:24:03.974Z,7.86
2023-03-17T19:29:10.081Z,7.32
2023-03-17T19:34:16.325Z,7.55
2023-03-17T19:39:22.778Z,7.72
2023-03-17T19:44:28.976Z,8.75
2023-03-17T19:49:35.044Z,8.53
2023-03-17T19:54:41.196Z,8.59
2023-03-17T19:59:47.274Z,9.04
2023-03-17T20:04:53.575Z,9.46
2023-03-17T20:09:59.587Z,8.49
2023-03-17T20:15:05.846Z,9.04
2023-03-17T20:20:12.114Z,9.75
2023-03-17T20:25:18.508Z,9.62
2023-03-17T20:30:24.615Z,10.68
2023-03-17T20:35:30.790Z,9.24
2023-03-17T20:40:36.855Z,7.84
2023-03-17T20:45:43.034Z,7.28
2023-03-17T20:50:49.217Z,7.04
2023-03-17T20:55:55.441Z,6.70
2023-03-17T21:01:01.464Z,6.58
2023-03-17T21:06:07.696Z,6.50
2023-03-17T21:11:13.967Z,6.08
2023-03-17T21:16:20.483Z,6.10
2023-03-17T21:21:26.551Z,6.16
2023-03-17T21:26:32.901Z,6.03
2023-03-17T21:31:39.089Z,6.00
2023-03-17T21:36:45.168Z,6.19
2023-03-17T21:41:51.337Z,6.83
2023-03-17T21:46:57.562Z,6.44
2023-03-17T21:52:03.636Z,5.85
2023-03-17T21:57:09.945Z,5.56
2023-03-17T22:02:16.086Z,5.46
2023-03-17T22:07:22.270Z,5.06
2023-03-17T22:12:29.119Z,5.04
2023-03-17T22:17:35.266Z,5.16
2023-03-17T22:22:41.408Z,5.31
2023-03-17T22:27:48.392Z,5.06
2023-03-17T22:32:54.594Z,4.63
2023-03-17T22:38:00.840Z,4.65
2023-03-17T22:43:06.982Z,4.87
2023-03-17T22:48:13.380Z,4.64
2023-03-17T22:53:19.534Z,4.71
2023-03-17T22:58:25.923Z,4.96
2023-03-17T23:03:32.066Z,4.90
2023-03-17T23:08:38.204Z,5.14
2023-03-17T23:13:44.356Z,4.94
2023-03-17T23:18:51.051Z,4.39
2023-03-17T23:23:57.181Z,4.37
2023-03-17T23:29:03.740Z,4.17
2023-03-17T23:34:09.881Z,4.34
2023-03-17T23:39:16.108Z,4.52
2023-03-17T23:44:22.325Z,4.13
2023-03-17T23:49:28.676Z,4.32
2023-03-17T23:54:34.790Z,4.24
2023-03-17T23:59:40.971Z,4.15
